Time;durP1;ratioP1;P1;durP2;ratioP2;P2;SDS_P1;SDS_P2;PMS_P1;PMS_P2;Temp;Humidity;BMP_temperature;BMP_pressure;BME280_temperature;BME280_humidity;BME280_pressure;Samples;Min_cycle;Max_cycle;Signal;HPM_P1;HPM_P2
2022/01/10 00:02:09;;;;;;;7.25;2.17;;;21.70;72.50;;;;;;7683095;29;20204;-55
2022/01/10 00:05:55;;;;;;;7.70;1.90;;;21.70;72.30;;;;;;7682887;29;20229;-53
2022/01/10 00:09:40;;;;;;;5.68;2.05;;;21.70;72.30;;;;;;7682140;29;20200;-57
2022/01/10 00:13:26;;;;;;;4.68;1.75;;;21.60;72.20;;;;;;7736956;28;20266;-55
2022/01/10 00:17:11;;;;;;;5.78;1.67;;;21.60;72.30;;;;;;7746529;28;20677;-58
2022/01/10 00:20:57;;;;;;;7.95;1.77;;;21.50;72.30;;;;;;7745705;28;20251;-56
2022/01/10 00:24:42;;;;;;;7.13;1.50;;;21.50;72.40;;;;;;7746360;28;20230;-58
2022/01/10 00:28:27;;;;;;;8.00;1.83;;;21.40;72.30;;;;;;7745611;28;20172;-56
2022/01/10 00:32:13;;;;;;;5.55;1.73;;;21.40;72.40;;;;;;7746171;28;20216;-57
2022/01/10 00:35:59;;;;;;;2.88;1.50;;;21.40;72.40;;;;;;7746152;28;20227;-56
2022/01/10 00:39:46;;;;;;;3.47;1.63;;;21.30;72.40;;;;;;7745493;28;20669;-58
2022/01/10 00:43:35;;;;;;;7.13;1.90;;;21.30;72.40;;;;;;7745947;28;20286;-58
2022/01/10 00:47:20;;;;;;;4.28;1.88;;;21.30;72.40;;;;;;7745931;28;20182;-57
2022/01/10 00:51:06;;;;;;;4.75;1.70;;;21.30;72.30;;;;;;7745279;28;20196;-53
2022/01/10 00:54:51;;;;;;;3.47;1.98;;;21.30;72.20;;;;;;7746097;28;20576;-55
2022/01/10 00:58:37;;;;;;;3.28;1.45;;;21.20;72.10;;;;;;7745609;28;20257;-59
2022/01/10 01:02:26;;;;;;;2.22;1.67;;;21.20;72.00;;;;;;7746123;28;20308;-57
2022/01/10 01:06:13;;;;;;;2.30;1.50;;;21.30;72.00;;;;;;7745868;28;20583;-57
2022/01/10 01:10:29;;;;;;;4.93;1.75;;;21.30;71.80;;;;;;7745297;28;20169;-59
2022/01/10 01:14:10;;;;;;;3.35;1.50;;;21.30;71.70;;;;;;7745619;28;20568;-59
2022/01/10 01:18:15;;;;;;;3.90;1.55;;;21.30;71.70;;;;;;7745249;28;20634;-57
2022/01/10 01:26:05;;;;;;;2.83;1.42;;;21.30;71.60;;;;;;7744461;28;20239;-56
2022/01/10 01:29:51;;;;;;;3.90;1.60;;;21.20;71.40;;;;;;7744867;28;20183;-59
2022/01/10 01:33:37;;;;;;;3.63;1.50;;;21.30;71.40;;;;;;7745162;28;20227;-60
2022/01/10 01:37:23;;;;;;;4.13;1.45;;;21.20;71.30;;;;;;7745306;28;20172;-58
2022/01/10 01:45:13;;;;;;;4.15;1.50;;;21.20;71.30;;;;;;7745355;28;20208;-58
2022/01/10 01:48:58;;;;;;;6.05;1.50;;;21.20;71.40;;;;;;7744465;28;20646;-59
2022/01/10 01:52:44;;;;;;;3.40;1.40;;;21.20;71.40;;;;;;7745054;28;20552;-58
2022/01/10 01:56:30;;;;;;;5.05;1.27;;;21.10;71.20;;;;;;7745821;28;20746;-59
2022/01/10 02:00:19;;;;;;;2.20;1.35;;;21.20;71.30;;;;;;7749964;28;20192;-54
2022/01/10 02:04:05;;;;;;;3.38;1.30;;;21.10;71.20;;;;;;7750274;28;20208;-53
2022/01/10 02:07:50;;;;;;;5.68;1.70;;;21.10;71.20;;;;;;7749621;28;20264;-57
2022/01/10 02:11:36;;;;;;;4.40;1.25;;;21.10;71.10;;;;;;7750090;28;20207;-56
2022/01/10 02:15:25;;;;;;;3.55;1.38;;;21.10;71.20;;;;;;7750024;28;20243;-55
2022/01/10 02:19:12;;;;;;;4.50;1.30;;;21.00;71.10;;;;;;7749250;28;20215;-57
2022/01/10 02:22:58;;;;;;;2.35;1.58;;;21.00;71.00;;;;;;7749736;28;20200;-56
2022/01/10 02:26:48;;;;;;;4.00;1.50;;;21.00;71.00;;;;;;7749640;28;20732;-57
2022/01/10 02:30:34;;;;;;;2.63;1.48;;;21.00;70.90;;;;;;7748982;28;20180;-55
2022/01/10 02:34:23;;;;;;;2.38;1.58;;;21.00;70.80;;;;;;7749618;28;20188;-56
2022/01/10 02:38:09;;;;;;;3.95;1.50;;;21.00;70.70;;;;;;7748813;28;20265;-56
2022/01/10 02:41:54;;;;;;;1.25;1.05;;;21.00;70.40;;;;;;7749344;28;20216;-57
2022/01/10 02:45:40;;;;;;;1.50;1.30;;;20.90;69.80;;;;;;7749274;28;20234;-58
2022/01/10 02:49:27;;;;;;;4.22;1.98;;;20.90;69.80;;;;;;7748541;28;20263;-55
2022/01/10 02:53:13;;;;;;;2.38;1.55;;;20.90;69.30;;;;;;7749280;28;20316;-58
2022/01/10 02:56:58;;;;;;;3.20;1.30;;;20.90;68.90;;;;;;7749674;28;20180;-57
2022/01/10 03:00:44;;;;;;;3.53;1.50;;;20.90;69.00;;;;;;7748295;28;20184;-56
2022/01/10 03:04:29;;;;;;;4.82;1.60;;;20.90;68.80;;;;;;7748915;28;20254;-58
2022/01/10 03:08:14;;;;;;;3.47;1.50;;;20.90;68.70;;;;;;7747926;28;20246;-57
2022/01/10 03:12:00;;;;;;;3.30;1.33;;;20.90;68.50;;;;;;7748602;28;20200;-58
2022/01/10 03:15:46;;;;;;;2.58;1.90;;;20.90;68.30;;;;;;7748355;28;20211;-59
2022/01/10 03:19:31;;;;;;;1.98;1.33;;;20.90;68.20;;;;;;7747558;28;20195;-58
2022/01/10 03:23:17;;;;;;;3.47;1.70;;;20.90;68.10;;;;;;7748079;28;20204;-58
2022/01/10 03:27:03;;;;;;;2.13;1.30;;;20.80;68.10;;;;;;7747960;28;20843;-58
2022/01/10 03:30:48;;;;;;;2.35;1.80;;;20.80;67.90;;;;;;7747146;28;20270;-57
2022/01/10 03:34:34;;;;;;;4.30;1.70;;;20.80;68.00;;;;;;7747858;28;20263;-58
2022/01/10 03:38:20;;;;;;;3.00;1.60;;;20.80;67.80;;;;;;7747049;28;20263;-59
2022/01/10 03:42:05;;;;;;;2.83;1.50;;;20.80;67.80;;;;;;7747186;28;20196;-59
2022/01/10 03:45:51;;;;;;;2.78;1.55;;;20.80;67.80;;;;;;7747430;28;20269;-58
2022/01/10 03:49:37;;;;;;;3.10;1.75;;;20.80;67.80;;;;;;7746775;28;20176;-57
2022/01/10 03:53:23;;;;;;;4.03;2.08;;;20.70;67.70;;;;;;7747402;28;20196;-59
2022/01/10 03:57:09;;;;;;;2.50;1.50;;;20.70;67.70;;;;;;7747225;28;20222;-58
2022/01/10 04:00:55;;;;;;;2.75;1.80;;;20.70;67.60;;;;;;7746458;28;20207;-59
2022/01/10 04:04:40;;;;;;;3.25;1.80;;;20.70;67.70;;;;;;7747020;28;20211;-54
2022/01/10 04:08:26;;;;;;;3.10;1.50;;;20.70;67.70;;;;;;7746276;28;20178;-57
2022/01/10 04:12:11;;;;;;;2.05;1.50;;;20.70;67.60;;;;;;7746959;28;20700;-57
2022/01/10 04:15:57;;;;;;;2.97;1.50;;;20.70;67.50;;;;;;7746689;28;20191;-54
2022/01/10 04:19:42;;;;;;;4.13;1.52;;;20.60;67.40;;;;;;7745460;28;20203;-55
2022/01/10 04:23:28;;;;;;;3.20;1.55;;;20.60;67.40;;;;;;7746373;28;20681;-56
2022/01/10 04:27:14;;;;;;;2.30;1.60;;;20.60;67.40;;;;;;7746698;28;20187;-57
2022/01/10 04:30:59;;;;;;;2.50;1.65;;;20.60;67.40;;;;;;7745638;28;20270;-57
2022/01/10 04:34:47;;;;;;;3.15;1.67;;;20.60;67.40;;;;;;7746811;28;20172;-56
2022/01/10 04:38:34;;;;;;;2.08;1.88;;;20.60;67.30;;;;;;7746104;28;20187;-56
2022/01/10 04:42:20;;;;;;;1.83;1.50;;;20.60;67.30;;;;;;7746732;28;20737;-56
2022/01/10 04:46:05;;;;;;;3.53;1.75;;;20.60;67.30;;;;;;7746253;28;20620;-56
2022/01/10 04:53:48;;;;;;;2.72;1.60;;;20.50;67.30;;;;;;7746051;28;20284;-57
2022/01/10 04:57:33;;;;;;;3.67;1.77;;;20.50;67.30;;;;;;7745268;28;20614;-57
2022/01/10 05:01:19;;;;;;;2.67;1.77;;;20.50;67.30;;;;;;7745820;28;20199;-58
2022/01/10 05:05:05;;;;;;;3.45;1.70;;;20.50;67.40;;;;;;7745858;28;20208;-56
2022/01/10 05:08:50;;;;;;;2.75;1.70;;;20.50;67.30;;;;;;7744955;28;20184;-58
2022/01/10 05:12:36;;;;;;;2.55;1.58;;;20.50;67.40;;;;;;7745628;28;20283;-59
2022/01/10 05:16:22;;;;;;;2.58;2.00;;;20.50;67.40;;;;;;7745569;28;20224;-56
2022/01/10 05:20:08;;;;;;;4.20;1.88;;;20.50;67.40;;;;;;7744950;28;20580;-58
2022/01/10 05:23:53;;;;;;;2.80;2.30;;;20.50;67.40;;;;;;7745444;28;20600;-58
2022/01/10 05:27:39;;;;;;;4.55;1.83;;;20.50;67.40;;;;;;7743319;28;20285;-57
2022/01/10 05:31:24;;;;;;;4.28;2.10;;;20.50;67.60;;;;;;7743454;28;20226;-56
2022/01/10 05:35:10;;;;;;;2.90;2.08;;;20.50;67.30;;;;;;7750260;28;20252;-58
2022/01/10 05:38:56;;;;;;;12.70;2.33;;;20.50;67.10;;;;;;7745271;28;20176;-58
2022/01/10 05:42:42;;;;;;;26.30;2.78;;;20.50;67.60;;;;;;7718764;28;20283;-59
2022/01/10 05:46:28;;;;;;;20.92;2.20;;;20.60;67.70;;;;;;7746707;28;20218;-59
2022/01/10 05:50:20;;;;;;;12.70;2.72;;;20.60;67.70;;;;;;7749609;28;20195;-59
2022/01/10 05:54:07;;;;;;;25.98;3.10;;;20.50;67.60;;;;;;7744488;28;20211;-63
2022/01/10 05:57:53;;;;;;;15.13;2.50;;;20.60;67.90;;;;;;7719569;28;20352;-60
2022/01/10 06:01:38;;;;;;;19.38;2.35;;;20.60;67.70;;;;;;7748379;28;20303;-59
2022/01/10 06:05:30;;;;;;;13.25;2.40;;;20.60;67.70;;;;;;7749829;28;20234;-56
2022/01/10 06:09:16;;;;;;;13.20;2.65;;;20.60;67.50;;;;;;7749505;28;20208;-57
2022/01/10 06:13:01;;;;;;;50.25;4.65;;;20.60;67.40;;;;;;7749530;28;20211;-58
2022/01/10 06:16:47;;;;;;;54.72;4.75;;;20.60;66.80;;;;;;7749630;28;20650;-57
2022/01/10 06:20:32;;;;;;;35.53;3.42;;;20.60;66.10;;;;;;7748818;28;20390;-57
2022/01/10 06:24:18;;;;;;;55.08;4.50;;;20.50;66.40;;;;;;7749166;28;20581;-57
2022/01/10 06:28:04;;;;;;;17.92;2.72;;;20.50;66.90;;;;;;7748794;28;20215;-57
2022/01/10 06:31:49;;;;;;;30.02;2.97;;;20.50;67.10;;;;;;7748517;28;20290;-56
2022/01/10 06:35:35;;;;;;;17.25;2.85;;;20.60;67.20;;;;;;7748840;28;20188;-58
2022/01/10 06:39:21;;;;;;;20.38;2.78;;;20.60;67.50;;;;;;7748257;28;20231;-57
2022/01/10 06:43:07;;;;;;;27.55;2.65;;;20.60;67.40;;;;;;7747964;28;20203;-58
2022/01/10 06:46:52;;;;;;;11.18;2.75;;;20.60;67.30;;;;;;7748326;28;20254;-58
2022/01/10 06:50:38;;;;;;;15.30;3.20;;;20.60;67.10;;;;;;7747926;28;20202;-57
2022/01/10 06:54:24;;;;;;;13.45;3.50;;;20.50;67.20;;;;;;7748138;28;20644;-57
2022/01/10 06:58:09;;;;;;;8.00;2.83;;;20.50;67.30;;;;;;7747760;28;20247;-57
2022/01/10 07:01:56;;;;;;;17.90;3.42;;;20.60;67.20;;;;;;7747851;28;20192;-56
2022/01/10 07:05:41;;;;;;;19.08;3.28;;;20.50;67.40;;;;;;7748071;28;20262;-56
2022/01/10 07:09:27;;;;;;;12.07;2.75;;;20.50;67.20;;;;;;7747265;28;20168;-57
2022/01/10 07:13:12;;;;;;;11.02;2.80;;;20.60;67.20;;;;;;7747672;28;20577;-57
2022/01/10 07:16:58;;;;;;;14.80;2.72;;;20.50;67.20;;;;;;7747599;28;20184;-58
2022/01/10 07:20:44;;;;;;;12.23;2.80;;;20.50;67.40;;;;;;7746751;28;20184;-58
2022/01/10 07:24:29;;;;;;;8.45;2.72;;;20.50;67.40;;;;;;7747467;28;20790;-58
2022/01/10 07:28:15;;;;;;;10.40;2.80;;;20.50;67.40;;;;;;7746975;28;20238;-59
2022/01/10 07:32:00;;;;;;;9.55;3.00;;;20.60;67.50;;;;;;7746788;28;20590;-58
2022/01/10 07:35:46;;;;;;;12.38;3.63;;;20.60;67.70;;;;;;7747036;28;20192;-57
2022/01/10 07:39:31;;;;;;;19.60;3.08;;;20.50;67.60;;;;;;7746664;28;20172;-59
2022/01/10 07:43:17;;;;;;;11.68;2.85;;;20.50;67.60;;;;;;7746928;28;20242;-58
2022/01/10 07:47:02;;;;;;;15.27;2.97;;;20.50;67.60;;;;;;7746806;28;20290;-57
2022/01/10 07:50:48;;;;;;;17.67;3.53;;;20.50;67.70;;;;;;7746398;28;20283;-57
2022/01/10 07:54:33;;;;;;;6.28;2.85;;;20.50;67.70;;;;;;7746175;28;20176;-58
2022/01/10 07:58:19;;;;;;;14.23;3.22;;;20.50;67.70;;;;;;7745917;28;20176;-59
2022/01/10 08:02:05;;;;;;;9.63;2.90;;;20.50;67.70;;;;;;7746205;28;20203;-58
2022/01/10 08:05:50;;;;;;;8.90;2.45;;;20.50;67.70;;;;;;7746471;28;20215;-58
2022/01/10 08:09:36;;;;;;;8.93;3.25;;;20.50;67.70;;;;;;7745410;28;20179;-58
2022/01/10 08:13:23;;;;;;;10.57;3.20;;;20.50;67.70;;;;;;7746408;28;20581;-57
2022/01/10 08:17:09;;;;;;;11.10;2.80;;;20.50;67.70;;;;;;7746027;28;20226;-58
2022/01/10 08:20:54;;;;;;;9.30;3.55;;;20.50;67.80;;;;;;7745331;28;20291;-58
2022/01/10 08:24:40;;;;;;;8.13;3.10;;;20.50;67.80;;;;;;7745621;28;20421;-58
2022/01/10 08:28:25;;;;;;;6.07;2.50;;;20.50;67.90;;;;;;7745347;28;20729;-57
2022/01/10 08:32:11;;;;;;;6.95;2.88;;;20.50;67.60;;;;;;7745354;28;20216;-57
2022/01/10 08:35:57;;;;;;;8.80;3.38;;;20.50;67.70;;;;;;7745459;28;20191;-57
2022/01/10 08:39:49;;;;;;;11.00;4.03;;;20.50;67.80;;;;;;7744965;28;20188;-58
2022/01/10 08:43:34;;;;;;;5.43;3.53;;;20.50;67.70;;;;;;7745582;28;20200;-57
2022/01/10 08:47:20;;;;;;;8.30;3.60;;;20.50;67.70;;;;;;7745230;28;20214;-57
2022/01/10 08:51:06;;;;;;;11.25;4.15;;;20.50;67.70;;;;;;7744781;28;20557;-57
2022/01/10 08:54:52;;;;;;;6.85;3.80;;;20.50;67.80;;;;;;7745258;28;20175;-56
2022/01/10 08:58:37;;;;;;;10.32;3.50;;;20.50;67.80;;;;;;7744579;28;20646;-56
2022/01/10 09:02:23;;;;;;;8.82;4.38;;;20.50;67.90;;;;;;7741415;28;20216;-56
2022/01/10 09:06:08;;;;;;;9.77;4.95;;;20.50;68.00;;;;;;7717236;28;20302;-57
2022/01/10 09:09:54;;;;;;;15.63;5.18;;;20.50;67.70;;;;;;7720544;28;20160;-58
2022/01/10 09:13:39;;;;;;;28.90;6.43;;;20.50;67.70;;;;;;7720808;28;20701;-57
2022/01/10 09:17:25;;;;;;;18.17;5.50;;;20.50;67.70;;;;;;7720955;28;20219;-57
2022/01/10 09:21:10;;;;;;;14.45;6.43;;;20.60;67.70;;;;;;7720333;28;20247;-57
2022/01/10 09:24:56;;;;;;;15.40;5.13;;;20.50;68.00;;;;;;7720500;28;20801;-57
2022/01/10 09:28:43;;;;;;;11.90;4.05;;;20.60;68.50;;;;;;7720136;28;20199;-55
2022/01/10 09:32:29;;;;;;;13.95;3.67;;;20.60;70.00;;;;;;7728312;28;20212;-56
2022/01/10 09:36:15;;;;;;;19.08;4.15;;;20.70;70.30;;;;;;7751115;28;20183;-57
2022/01/10 09:40:00;;;;;;;16.08;3.58;;;20.90;70.20;;;;;;7746950;28;21005;-58
2022/01/10 09:43:56;;;;;;;25.13;3.88;;;21.00;70.10;;;;;;7747018;28;20203;-58
2022/01/10 09:47:41;;;;;;;8.88;3.10;;;21.20;70.00;;;;;;7750516;28;20215;-57
2022/01/10 09:51:28;;;;;;;16.60;3.78;;;21.50;69.80;;;;;;7749509;28;20215;-58
2022/01/10 09:55:14;;;;;;;13.93;3.08;;;21.70;69.70;;;;;;7749922;28;20199;-56
2022/01/10 09:59:00;;;;;;;19.40;3.10;;;21.90;69.50;;;;;;7725314;28;20216;-60
2022/01/10 10:02:49;;;;;;;8.23;3.50;;;22.10;69.50;;;;;;7721006;28;20220;-59
2022/01/10 10:06:35;;;;;;;15.98;3.15;;;22.30;69.40;;;;;;7749822;28;20223;-57
2022/01/10 10:10:21;;;;;;;11.57;2.70;;;22.50;69.20;;;;;;7748946;28;20677;-59
2022/01/10 10:14:10;;;;;;;18.70;3.97;;;22.70;69.00;;;;;;7749256;28;20672;-60
2022/01/10 10:17:55;;;;;;;32.58;3.50;;;22.90;68.90;;;;;;7748319;28;20176;-57
2022/01/10 10:21:41;;;;;;;13.13;3.30;;;23.00;68.80;;;;;;7748831;28;20234;-56
2022/01/10 10:25:26;;;;;;;21.65;3.05;;;23.20;68.90;;;;;;7721382;28;20212;-58
2022/01/10 10:29:17;;;;;;;19.75;3.03;;;23.30;68.70;;;;;;7718205;28;20512;-57
2022/01/10 10:33:14;;;;;;;14.02;3.50;;;23.30;68.70;;;;;;7718661;28;20239;-58
2022/01/10 10:37:13;;;;;;;13.52;3.70;;;23.20;68.90;;;;;;7718619;28;20660;-56
2022/01/10 10:41:01;;;;;;;10.88;2.80;;;23.20;69.20;;;;;;7717787;28;20211;-57
2022/01/10 10:44:47;;;;;;;16.20;3.20;;;23.00;69.60;;;;;;7718451;28;20311;-57
2022/01/10 10:48:35;;;;;;;14.45;3.08;;;23.00;69.70;;;;;;7717981;28;20177;-56
2022/01/10 10:52:20;;;;;;;14.00;3.40;;;23.10;69.80;;;;;;7718172;28;20196;-57
2022/01/10 10:56:07;;;;;;;10.95;2.70;;;23.20;69.80;;;;;;7718003;28;20188;-59
2022/01/10 10:59:53;;;;;;;9.30;2.83;;;23.30;69.80;;;;;;7717564;28;20177;-55
2022/01/10 11:03:40;;;;;;;9.32;2.80;;;23.30;69.80;;;;;;7717902;28;20218;-58
2022/01/10 11:07:27;;;;;;;10.20;3.40;;;23.30;69.80;;;;;;7717724;28;20216;-56
2022/01/10 11:11:16;;;;;;;10.52;3.03;;;23.30;69.80;;;;;;7717742;28;20200;-56
2022/01/10 11:15:02;;;;;;;10.18;2.60;;;23.30;69.80;;;;;;7717799;28;20216;-57
2022/01/10 11:18:49;;;;;;;11.60;5.28;;;23.30;69.90;;;;;;7717041;28;20200;-59
2022/01/10 11:22:37;;;;;;;21.27;4.97;;;22.90;68.40;;;;;;7717521;28;20204;-59
2022/01/10 11:26:36;;;;;;;39.75;5.95;;;22.80;68.50;;;;;;7717363;28;20208;-57
2022/01/10 11:30:22;;;;;;;49.55;6.45;;;22.80;68.90;;;;;;7716647;28;20176;-58
2022/01/10 11:34:10;;;;;;;36.45;5.97;;;22.60;66.60;;;;;;7717528;28;20227;-59
2022/01/10 11:37:56;;;;;;;36.10;5.20;;;22.80;68.70;;;;;;7716721;28;20180;-58
2022/01/10 11:41:41;;;;;;;28.63;5.20;;;22.80;68.50;;;;;;7716461;28;20204;-59
2022/01/10 11:45:27;;;;;;;37.00;4.40;;;23.00;68.80;;;;;;7716230;28;20636;-58
2022/01/10 11:49:12;;;;;;;26.08;4.70;;;23.20;68.90;;;;;;7736898;28;20638;-58
2022/01/10 11:53:03;;;;;;;34.13;4.78;;;23.30;68.70;;;;;;7746484;28;20188;-58
2022/01/10 11:56:50;;;;;;;29.88;4.57;;;23.40;68.70;;;;;;7746353;28;20279;-57
2022/01/10 12:00:36;;;;;;;17.77;3.97;;;23.50;68.40;;;;;;7745741;28;20180;-61
2022/01/10 12:04:22;;;;;;;25.05;4.30;;;23.70;68.20;;;;;;7746210;28;20262;-60
2022/01/10 12:08:08;;;;;;;24.08;5.00;;;23.70;68.10;;;;;;7745722;28;20203;-60
2022/01/10 12:11:54;;;;;;;24.38;3.90;;;23.90;68.00;;;;;;7745885;28;20196;-60
2022/01/10 12:15:40;;;;;;;27.38;4.93;;;23.90;68.10;;;;;;7746186;28;20175;-61
2022/01/10 12:19:26;;;;;;;20.77;3.60;;;24.00;68.00;;;;;;7745446;28;20267;-60
2022/01/10 12:23:12;;;;;;;19.10;4.43;;;24.20;68.10;;;;;;7746067;28;20204;-58
2022/01/10 12:26:57;;;;;;;21.85;3.65;;;24.20;68.20;;;;;;7745039;28;20226;-58
2022/01/10 12:30:44;;;;;;;11.50;3.15;;;24.20;68.10;;;;;;7744740;28;20220;-57
2022/01/10 12:34:30;;;;;;;10.73;3.47;;;24.30;68.10;;;;;;7745439;28;20215;-57
2022/01/10 12:38:20;;;;;;;19.25;3.65;;;24.30;68.20;;;;;;7745284;28;20184;-59
2022/01/10 12:42:06;;;;;;;17.40;3.17;;;24.30;68.20;;;;;;7745026;28;20200;-56
2022/01/10 12:45:52;;;;;;;18.48;2.92;;;24.30;68.40;;;;;;7745440;28;20212;-57
2022/01/10 12:49:39;;;;;;;11.52;2.90;;;24.30;68.60;;;;;;7745295;28;20176;-57
2022/01/10 12:53:26;;;;;;;14.57;3.25;;;24.20;68.70;;;;;;7745453;28;20196;-58
2022/01/10 12:57:12;;;;;;;8.88;3.25;;;24.20;68.70;;;;;;7745169;28;20653;-58
2022/01/10 13:00:57;;;;;;;11.55;2.95;;;24.10;68.80;;;;;;7744518;28;20634;-60
2022/01/10 13:04:43;;;;;;;9.73;2.85;;;24.10;69.10;;;;;;7744960;28;20219;-58
2022/01/10 13:08:35;;;;;;;10.73;3.08;;;24.00;68.80;;;;;;7744534;28;20180;-57
2022/01/10 13:12:28;;;;;;;8.65;2.90;;;24.00;68.90;;;;;;7744890;28;20192;-58
2022/01/10 13:16:29;;;;;;;10.25;3.00;;;23.90;69.80;;;;;;7745131;28;20172;-59
2022/01/10 13:20:15;;;;;;;15.15;3.08;;;23.90;69.10;;;;;;7744688;28;20180;-59
2022/01/10 13:24:18;;;;;;;11.50;3.13;;;23.90;69.10;;;;;;7744588;28;20278;-58
2022/01/10 13:28:07;;;;;;;8.32;2.70;;;23.80;69.20;;;;;;7744628;28;20207;-58
2022/01/10 13:31:53;;;;;;;8.60;2.67;;;23.80;69.20;;;;;;7744707;28;20715;-57
2022/01/10 13:35:38;;;;;;;12.18;3.08;;;23.80;69.20;;;;;;7744599;28;20337;-57
2022/01/10 13:39:28;;;;;;;7.22;2.45;;;23.80;69.20;;;;;;7744099;28;20177;-58
2022/01/10 13:43:16;;;;;;;10.20;2.88;;;23.70;69.20;;;;;;7744548;28;20203;-58
2022/01/10 13:47:06;;;;;;;9.35;3.22;;;23.70;69.40;;;;;;7744449;28;20206;-56
2022/01/10 13:51:03;;;;;;;8.00;2.42;;;23.70;69.40;;;;;;7744109;28;20224;-57
2022/01/10 13:54:49;;;;;;;5.25;2.45;;;23.70;69.70;;;;;;7748698;28;20222;-57
2022/01/10 13:58:36;;;;;;;6.07;2.65;;;23.70;69.70;;;;;;7749582;28;20184;-58
2022/01/10 14:02:21;;;;;;;8.27;2.50;;;23.70;69.60;;;;;;7749861;28;20230;-56
2022/01/10 14:06:23;;;;;;;9.13;2.80;;;23.70;69.70;;;;;;7750202;28;20255;-57
2022/01/10 14:10:09;;;;;;;7.00;2.58;;;23.70;69.70;;;;;;7749409;28;20219;-57
2022/01/10 14:14:01;;;;;;;5.97;2.40;;;23.60;69.50;;;;;;7749397;28;20285;-58
2022/01/10 14:17:47;;;;;;;4.45;2.33;;;23.60;69.60;;;;;;7749301;28;20618;-59
2022/01/10 14:21:33;;;;;;;3.97;2.45;;;23.60;69.70;;;;;;7748929;28;20578;-59
2022/01/10 14:25:19;;;;;;;5.60;2.35;;;23.60;69.70;;;;;;7748803;28;20200;-59
2022/01/10 14:29:05;;;;;;;6.82;2.40;;;23.60;69.60;;;;;;7749291;28;20176;-57
2022/01/10 14:32:52;;;;;;;10.30;2.58;;;23.50;69.70;;;;;;7748847;28;20215;-58
2022/01/10 14:36:37;;;;;;;10.02;2.60;;;23.50;70.00;;;;;;7748946;28;20180;-57
2022/01/10 14:40:23;;;;;;;10.90;2.50;;;23.50;70.80;;;;;;7748198;28;20190;-58
2022/01/10 14:44:08;;;;;;;5.18;2.40;;;23.40;70.00;;;;;;7746352;28;20222;-56
2022/01/10 14:47:54;;;;;;;7.57;2.65;;;23.40;70.00;;;;;;7744123;28;20223;-58
2022/01/10 14:51:39;;;;;;;5.30;2.45;;;23.30;69.70;;;;;;7747788;28;20235;-56
2022/01/10 14:55:25;;;;;;;7.65;2.30;;;23.30;69.50;;;;;;7742015;28;20218;-58
2022/01/10 14:59:10;;;;;;;10.73;2.35;;;23.30;69.50;;;;;;7729589;28;20210;-56
2022/01/10 15:02:56;;;;;;;14.70;2.33;;;23.30;69.60;;;;;;7748098;28;20211;-58
2022/01/10 15:06:41;;;;;;;16.92;2.50;;;23.20;69.90;;;;;;7743303;28;20228;-56
2022/01/10 15:10:27;;;;;;;13.05;2.63;;;23.10;69.70;;;;;;7747781;28;20583;-57
2022/01/10 15:14:13;;;;;;;16.10;2.60;;;23.10;69.70;;;;;;7748023;28;20207;-55
2022/01/10 15:17:58;;;;;;;12.88;2.53;;;23.00;70.30;;;;;;7747227;28;20190;-57
2022/01/10 15:21:45;;;;;;;19.33;3.10;;;22.90;72.30;;;;;;7747662;28;20314;-54
2022/01/10 15:25:31;;;;;;;23.98;2.88;;;22.90;73.10;;;;;;7746845;28;20214;-58
2022/01/10 15:29:16;;;;;;;9.57;2.72;;;22.90;74.10;;;;;;7747422;28;20181;-56
2022/01/10 15:33:02;;;;;;;20.80;2.85;;;22.90;74.70;;;;;;7720290;28;20238;-57
2022/01/10 15:36:48;;;;;;;11.00;2.90;;;22.80;74.80;;;;;;7717602;28;20189;-57
2022/01/10 15:40:35;;;;;;;17.90;2.92;;;22.80;75.10;;;;;;7717500;28;20612;-57
2022/01/10 15:44:20;;;;;;;15.77;2.67;;;22.90;75.20;;;;;;7717689;28;20231;-57
2022/01/10 15:48:06;;;;;;;21.48;3.00;;;22.80;75.20;;;;;;7717727;28;20180;-57
2022/01/10 15:51:51;;;;;;;13.82;2.20;;;22.90;75.10;;;;;;7717414;28;20247;-59
2022/01/10 15:55:37;;;;;;;11.35;2.58;;;22.90;75.00;;;;;;7717371;28;20545;-58
2022/01/10 15:59:23;;;;;;;10.68;2.33;;;22.90;75.00;;;;;;7716818;28;20913;-59
2022/01/10 16:03:08;;;;;;;12.85;2.30;;;22.90;74.80;;;;;;7717140;28;20205;-58
2022/01/10 16:06:55;;;;;;;9.70;2.72;;;22.90;74.40;;;;;;7717100;28;20205;-58
2022/01/10 16:10:46;;;;;;;10.60;2.25;;;22.90;71.90;;;;;;7716394;28;20634;-59
2022/01/10 16:14:31;;;;;;;6.38;2.20;;;22.80;70.70;;;;;;7716846;28;20188;-57
2022/01/10 16:18:17;;;;;;;7.63;2.63;;;22.80;69.10;;;;;;7716032;28;20275;-56
2022/01/10 16:22:04;;;;;;;5.90;2.40;;;22.80;68.50;;;;;;7716594;28;20253;-58
2022/01/10 16:25:50;;;;;;;7.53;2.30;;;22.80;68.10;;;;;;7716627;28;20209;-59
2022/01/10 16:29:37;;;;;;;6.10;2.60;;;22.80;68.10;;;;;;7718867;28;20235;-58
2022/01/10 16:33:22;;;;;;;4.72;2.15;;;22.80;67.70;;;;;;7716232;28;20592;-58
2022/01/10 16:37:08;;;;;;;5.15;2.30;;;22.80;67.40;;;;;;7716425;28;20267;-58
2022/01/10 16:40:54;;;;;;;12.27;2.45;;;22.80;67.10;;;;;;7716054;28;20205;-57
2022/01/10 16:44:40;;;;;;;4.05;2.72;;;22.80;67.00;;;;;;7716382;28;20678;-56
2022/01/10 16:48:26;;;;;;;4.65;2.10;;;22.80;66.80;;;;;;7715891;28;20667;-54
2022/01/10 16:52:13;;;;;;;5.18;2.20;;;22.80;66.70;;;;;;7716033;28;20197;-54
2022/01/10 16:55:59;;;;;;;3.63;2.13;;;22.80;66.40;;;;;;7716141;28;20191;-57
2022/01/10 16:59:45;;;;;;;10.73;2.30;;;22.80;66.30;;;;;;7715823;28;20191;-54
2022/01/10 17:03:31;;;;;;;8.98;2.20;;;22.80;66.20;;;;;;7715841;28;20200;-57
2022/01/10 17:07:17;;;;;;;4.70;2.60;;;22.80;66.20;;;;;;7715932;28;20254;-57
2022/01/10 17:11:02;;;;;;;3.45;2.28;;;22.80;66.00;;;;;;7715623;28;20215;-57
2022/01/10 17:14:48;;;;;;;5.20;2.95;;;22.80;66.00;;;;;;7715906;28;20187;-56
2022/01/10 17:18:34;;;;;;;8.02;3.08;;;22.80;65.70;;;;;;7715420;28;20543;-58
2022/01/10 17:22:21;;;;;;;11.98;3.38;;;22.80;65.90;;;;;;7715704;28;20213;-57
2022/01/10 17:26:06;;;;;;;9.98;3.08;;;22.90;65.70;;;;;;7715941;28;20573;-54
2022/01/10 17:29:52;;;;;;;10.55;3.60;;;22.80;65.70;;;;;;7742416;28;20184;-57
2022/01/10 17:33:37;;;;;;;13.65;4.38;;;22.80;65.60;;;;;;7751527;28;20215;-56
2022/01/10 17:37:23;;;;;;;12.50;3.50;;;22.80;64.90;;;;;;7751677;28;20180;-56
2022/01/10 17:41:08;;;;;;;7.10;3.17;;;22.80;65.40;;;;;;7751168;28;20196;-58
2022/01/10 17:44:54;;;;;;;18.83;3.65;;;22.70;65.20;;;;;;7751359;28;20200;-59
2022/01/10 17:48:40;;;;;;;40.05;9.80;;;22.70;65.90;;;;;;7750795;28;20184;-56
2022/01/10 17:52:31;;;;;;;163.20;23.17;;;22.70;65.80;;;;;;7747943;28;20833;-57
2022/01/10 17:56:20;;;;;;;119.70;24.80;;;22.80;65.60;;;;;;7751741;28;20196;-59
2022/01/10 18:00:14;;;;;;;99.38;31.15;;;22.80;64.60;;;;;;7751268;28;20180;-56
2022/01/10 18:04:00;;;;;;;103.63;37.85;;;22.80;64.80;;;;;;7750892;28;20570;-57
2022/01/10 18:07:46;;;;;;;90.68;39.40;;;22.90;64.80;;;;;;7751038;28;20263;-57
2022/01/10 18:11:31;;;;;;;81.15;37.03;;;23.00;65.00;;;;;;7750405;28;20196;-59
2022/01/10 18:15:17;;;;;;;86.78;33.58;;;23.20;65.30;;;;;;7750503;28;20182;-56
2022/01/10 18:19:03;;;;;;;75.28;38.55;;;23.40;65.80;;;;;;7749933;28;20180;-59
2022/01/10 18:22:48;;;;;;;87.03;43.13;;;23.50;66.20;;;;;;7750010;28;20212;-59
2022/01/10 18:26:34;;;;;;;87.22;28.95;;;23.70;67.00;;;;;;7728353;28;20255;-58
2022/01/10 18:30:24;;;;;;;71.82;27.55;;;23.90;67.30;;;;;;7725416;28;20538;-59
2022/01/10 18:34:10;;;;;;;54.50;15.75;;;24.10;68.10;;;;;;7749035;28;20223;-57
2022/01/10 18:37:57;;;;;;;50.00;14.52;;;24.30;68.60;;;;;;7746764;28;20234;-58
2022/01/10 18:41:42;;;;;;;38.85;10.57;;;24.40;68.70;;;;;;7744861;28;20258;-54
2022/01/10 18:45:28;;;;;;;40.50;11.50;;;24.60;68.50;;;;;;7749177;28;20208;-55
2022/01/10 18:49:14;;;;;;;32.53;10.32;;;24.70;68.50;;;;;;7749172;28;20195;-56
2022/01/10 18:52:59;;;;;;;37.15;9.93;;;24.80;68.30;;;;;;7732587;28;20209;-57
2022/01/10 18:56:45;;;;;;;26.73;8.45;;;24.80;68.40;;;;;;7731666;28;20290;-58
2022/01/10 19:00:30;;;;;;;29.08;8.60;;;24.90;68.40;;;;;;7748963;28;20184;-56
2022/01/10 19:04:20;;;;;;;24.40;7.50;;;24.80;68.30;;;;;;7748903;28;20184;-56
2022/01/10 19:08:06;;;;;;;25.88;8.52;;;24.80;68.20;;;;;;7719015;28;20736;-57
2022/01/10 19:11:52;;;;;;;36.08;7.97;;;24.80;68.40;;;;;;7719069;28;20540;-56
2022/01/10 19:15:38;;;;;;;20.42;7.63;;;24.70;68.50;;;;;;7730095;28;20620;-54
2022/01/10 19:19:23;;;;;;;19.60;6.82;;;24.70;68.50;;;;;;7748868;28;20279;-56
2022/01/10 19:23:09;;;;;;;19.60;6.72;;;24.60;68.30;;;;;;7748690;28;20254;-54
2022/01/10 19:26:54;;;;;;;21.92;6.50;;;24.60;68.50;;;;;;7748236;28;20203;-55
2022/01/10 19:30:40;;;;;;;22.77;6.72;;;24.50;68.60;;;;;;7747709;28;20198;-54
2022/01/10 19:34:26;;;;;;;15.63;6.75;;;24.50;68.80;;;;;;7747758;28;20196;-55
2022/01/10 19:38:11;;;;;;;18.17;6.72;;;24.40;68.70;;;;;;7747676;28;20258;-56
2022/01/10 19:41:57;;;;;;;18.77;6.43;;;24.30;68.80;;;;;;7747677;28;20196;-58